Air Sicilia Virtual Airways - Route

Air Sicilia Virtual Airways - SIC025A

( IT ) LIRQ - 00:00
Peretola Airport
FIRENZE ( FLR )
plane_to ( IT ) LIRU - 00:00
Urbe Airport
ROMA ( )

AIRPORT NEAR NAVIGATION AIDS

Type Name Frequency
VOR-DME Peretola 112500 KHZ

METAR / TAF
LIRQ 211720Z VRB02KT CAVOK 32/16 Q1013
LIRQ 211100Z 2112/2212 05008KT 9999 SCT050

RUNWAY INFORMATION

Runway Runway length Runway width Runway elevation Runway displaced threshold Runway heading
05 5425 98 123 492 48
23 5425 98 132 2287 228

AIRPORT FREQUENCIES

Type Name Frequency
APP APP 126.075 MHZ
ATIS ATIS 129.35 MHZ
TWR FIRENZE TW 118.3 MHZ

AIRPORT NEAR NAVIGATION AIDS

Type Name Frequency
NDB Urbe 285 KHZ

METAR / TAF
LIRU 211650Z 31005KT 9999 VCSH FEW045 26/17 Q1014

RUNWAY INFORMATION

Runway Runway length Runway width Runway elevation Runway displaced threshold Runway heading
16 3543 98 55 361 160
34 3543 98 55 820 340

AIRPORT FREQUENCIES

Type Name Frequency
GND GND 122.7 MHZ
TWR TWR 123.8 MHZ

Flightplan

VFR

Air Sicilia Virtual Airways Fleets

AVAILABLE AIRCRAFTS for route at this time in Peretola Airport

At this time no aircraft Air Sicilia Virtual Airways is available at Peretola Airport
Only Charter flights.

125.38 NM

Distance in nautical miles.

€ 268,00

Ticket price for this flight.

0 h.

Estimated flight time.



07-08-2018
Aerosoft Professional Flight Planner PFPX

PFPX - Professional Flight Planner X - è un nuovo ed innovativo strumento di pianificazione del volo sviluppato da piloti e dispatcher del mondo reale. È un'aggiunta preziosa e realistica alla tua esperienza di simulaz ....


19-07-2018
Aerosoft Oslo X

L'Aeroporto di Oslo-Gardermoen (IATA: OSL, ICAO: ENGM) è il principale aeroporto norvegese e il 19° in Europa, è situato vicino alla cittadina di Ullensaker nella contea di Akershus e serve la capitale Oslo. Ha sostit ....


21-06-2018
Aerosoft Malpensa Professional P3Dv4

L'Aeroporto di Milano-Malpensa (IATA: MXP, ICAO: LIMC) è un aeroporto italiano situato nella provincia di Varese in Lombardia, ma considerato come il principale aeroporto di Milano.

È il secondo aeroporto ital ....


06-06-2018
1° Raduno Air Sicilia Virtual - parla il C.E.O.

Grande successo per il 1° Raduno di Compagnia dell'Air Sicilia Virtual, che ha visto i membri della Crew presenti il 4 giugno 2018 a Thiene ( VI ) , cimentarsi dal vivo con le reali ....


24-05-2018
Aerosoft Airport Rome XP

Tra le nostre recensioni non poteva mancare certo la nuova uscita Aerosoft per X-Plane, stiamo parlando di Airport Rome XP, finalmente un Add-on pay completo dell'Aeroporto di Roma Fiumicino per gli utilizzatori del simu ....